Airfield :
LOGIN :

Register | Disclaimer

   EN    FR    IT 

 










Legend :    VFR   Marginal VFR   IFR   Intensive IFR   Very Intensive IFR
Visi :
Ceiling :
>= 8 km
>= 3000ft
5 to 8 km
1000 to 3000 ft
1500m to 5 km
500 to 1000 ft
800 to 1500m
200 to 500 ft
< 800m
< 200 ft
Symbols :   Thunderstorms  Fog  Heavy snow  Heavy precipitations  Wind > 20 kt
SIGMETs :     Misc.  Thunderstorms  Icing  Turbulence  Mountain Waves  Volcanic Ashes







- Airport Elevation : 24 ft
- IATA code : FAO


LPFR - Faro

CURRENT METAR :
  • 231730Z 20009KT 9999 FEW035 20/16 Q1017

EXPIRED METARs :
  • 231700Z 19009KT CAVOK 21/16 Q1017
  • 231630Z 19010KT CAVOK 21/16 Q1017
  • 231600Z 19011KT 9999 FEW015 21/16 Q1017
  • 231530Z 18010KT 9999 FEW015 22/16 Q1017
  • 231500Z 18011KT 9999 FEW015 22/17 Q1017

TAF TAF LPFR
Valid from the 23 at 18:00 until the 24 at 18:00 UTC


231700Z 2318/2418 19010KT 9999 SCT015
TEMPO 2318/2323 SCT006 BKN010
PROB40
TEMPO 2318/2323 3000 DZ BR SCT002 BKN005
BECMG 2323/2401 VRB03KT
BECMG 2409/2412 10010KT FEW020
BECMG 2414/2416 VRB03KT CAVOK
No reported NOTAMs for that airfield.
2 SIGMETs reported for the Lisboa FIR (LPPC) :
 
Embedded thunderstorms
LPPC SIGMET 2 VALID 231800/231930 LPPT
LPPC LISBON FIR EMBD TS FCST WI N3900 W00830 - N4130 W01030 - N4200 W01000 - N4000 W00730 - N3900 W00830 TOP FL280 MOV NE 20KT WKN=
Embedded thunderstorms
LPPC SIGMET 1 VALID 231540/231800 LPPT
LPPC LISBON FIR EMBD TS FCST WI N3800 W00930 - N4030 W01030 - N4030 W00900 - N3830 W00800 - N3800 W00930 TOP FL280 MOV NE 20KT NC=



MET'MAP, your aeronautical weather chart ! - Copyright ORBIFLY December 2007 - Disclaimer

ORBIFLY MET'MAP TEAM :

Programming & Development : Alexandra Zaïnal
Concept & Development : Baudouin d'Aumeries
Co-Development & Prog : Marc-Olivier Méhu
Technical & hardware support : Manuel Goepfert

Contact : metmap@orbifly.com




SOURCES & CREDITS :

   NOAA